sensor_id;sensor_type;location;lat;lon;timestamp;P1;durP1;ratioP1;P2;durP2;ratioP2
66870;SDS011;53780;44.998;9.926;2022-11-20T00:02:39;52.70;;;20.40;;
66870;SDS011;53780;44.998;9.926;2022-11-20T00:05:42;48.80;;;19.08;;
66870;SDS011;53780;44.998;9.926;2022-11-20T00:08:47;49.27;;;19.83;;
66870;SDS011;53780;44.998;9.926;2022-11-20T00:11:51;47.95;;;19.02;;
66870;SDS011;53780;44.998;9.926;2022-11-20T00:14:55;55.22;;;20.60;;
66870;SDS011;53780;44.998;9.926;2022-11-20T00:17:59;47.95;;;19.70;;
66870;SDS011;53780;44.998;9.926;2022-11-20T00:21:07;49.42;;;19.38;;
66870;SDS011;53780;44.998;9.926;2022-11-20T00:24:14;53.37;;;19.97;;
66870;SDS011;53780;44.998;9.926;2022-11-20T00:27:18;48.30;;;20.02;;
66870;SDS011;53780;44.998;9.926;2022-11-20T00:30:22;52.25;;;20.48;;
66870;SDS011;53780;44.998;9.926;2022-11-20T00:33:25;55.20;;;20.63;;
66870;SDS011;53780;44.998;9.926;2022-11-20T00:36:31;51.42;;;21.13;;
66870;SDS011;53780;44.998;9.926;2022-11-20T00:39:37;53.00;;;20.60;;
66870;SDS011;53780;44.998;9.926;2022-11-20T00:42:41;49.58;;;19.38;;
66870;SDS011;53780;44.998;9.926;2022-11-20T00:45:45;51.03;;;20.00;;
66870;SDS011;53780;44.998;9.926;2022-11-20T00:48:48;49.63;;;20.25;;
66870;SDS011;53780;44.998;9.926;2022-11-20T00:51:52;54.05;;;20.95;;
66870;SDS011;53780;44.998;9.926;2022-11-20T00:54:56;47.90;;;19.27;;
66870;SDS011;53780;44.998;9.926;2022-11-20T00:58:01;52.72;;;20.90;;
66870;SDS011;53780;44.998;9.926;2022-11-20T01:01:06;55.20;;;20.23;;
66870;SDS011;53780;44.998;9.926;2022-11-20T01:04:11;44.92;;;17.70;;
66870;SDS011;53780;44.998;9.926;2022-11-20T01:07:15;46.85;;;18.20;;
66870;SDS011;53780;44.998;9.926;2022-11-20T01:10:19;44.10;;;17.50;;
66870;SDS011;53780;44.998;9.926;2022-11-20T01:13:23;42.78;;;16.63;;
66870;SDS011;53780;44.998;9.926;2022-11-20T01:16:43;42.13;;;16.48;;
66870;SDS011;53780;44.998;9.926;2022-11-20T01:19:49;38.45;;;15.70;;
66870;SDS011;53780;44.998;9.926;2022-11-20T01:22:54;39.40;;;15.90;;
66870;SDS011;53780;44.998;9.926;2022-11-20T01:25:59;41.10;;;16.07;;
66870;SDS011;53780;44.998;9.926;2022-11-20T01:29:04;42.70;;;16.23;;
66870;SDS011;53780;44.998;9.926;2022-11-20T01:32:14;40.45;;;16.45;;
66870;SDS011;53780;44.998;9.926;2022-11-20T01:35:17;40.42;;;16.40;;
66870;SDS011;53780;44.998;9.926;2022-11-20T01:38:21;38.22;;;16.52;;
66870;SDS011;53780;44.998;9.926;2022-11-20T01:41:26;40.20;;;16.23;;
66870;SDS011;53780;44.998;9.926;2022-11-20T01:44:53;44.25;;;16.13;;
66870;SDS011;53780;44.998;9.926;2022-11-20T01:48:04;62.10;;;21.42;;
66870;SDS011;53780;44.998;9.926;2022-11-20T01:51:12;93.10;;;28.42;;
66870;SDS011;53780;44.998;9.926;2022-11-20T01:54:24;50.60;;;19.73;;
66870;SDS011;53780;44.998;9.926;2022-11-20T01:57:34;44.07;;;18.23;;
66870;SDS011;53780;44.998;9.926;2022-11-20T02:00:39;53.33;;;20.85;;
66870;SDS011;53780;44.998;9.926;2022-11-20T02:03:44;46.25;;;17.30;;
66870;SDS011;53780;44.998;9.926;2022-11-20T02:10:05;48.28;;;17.90;;
66870;SDS011;53780;44.998;9.926;2022-11-20T02:13:10;47.35;;;18.02;;
66870;SDS011;53780;44.998;9.926;2022-11-20T02:16:39;49.92;;;17.95;;
66870;SDS011;53780;44.998;9.926;2022-11-20T02:19:48;44.15;;;16.35;;
66870;SDS011;53780;44.998;9.926;2022-11-20T02:23:06;41.00;;;15.50;;
66870;SDS011;53780;44.998;9.926;2022-11-20T02:26:15;35.03;;;15.45;;
66870;SDS011;53780;44.998;9.926;2022-11-20T02:29:24;38.42;;;15.07;;
66870;SDS011;53780;44.998;9.926;2022-11-20T02:32:32;49.42;;;19.17;;
66870;SDS011;53780;44.998;9.926;2022-11-20T02:35:39;44.92;;;17.20;;
66870;SDS011;53780;44.998;9.926;2022-11-20T02:38:48;42.85;;;16.15;;
66870;SDS011;53780;44.998;9.926;2022-11-20T02:41:53;43.10;;;16.23;;
66870;SDS011;53780;44.998;9.926;2022-11-20T02:44:59;36.72;;;15.07;;
66870;SDS011;53780;44.998;9.926;2022-11-20T02:48:03;39.97;;;15.48;;
66870;SDS011;53780;44.998;9.926;2022-11-20T02:51:07;40.50;;;15.00;;
66870;SDS011;53780;44.998;9.926;2022-11-20T02:54:10;38.97;;;15.52;;
66870;SDS011;53780;44.998;9.926;2022-11-20T02:57:14;48.70;;;18.13;;
66870;SDS011;53780;44.998;9.926;2022-11-20T03:00:18;43.53;;;17.80;;
66870;SDS011;53780;44.998;9.926;2022-11-20T03:03:24;42.75;;;17.20;;
66870;SDS011;53780;44.998;9.926;2022-11-20T03:06:28;36.28;;;15.48;;
66870;SDS011;53780;44.998;9.926;2022-11-20T03:09:32;31.52;;;13.30;;
66870;SDS011;53780;44.998;9.926;2022-11-20T03:12:36;35.15;;;14.68;;
66870;SDS011;53780;44.998;9.926;2022-11-20T03:15:39;33.38;;;14.48;;
66870;SDS011;53780;44.998;9.926;2022-11-20T03:18:43;35.38;;;13.18;;
66870;SDS011;53780;44.998;9.926;2022-11-20T03:21:48;41.85;;;14.50;;
66870;SDS011;53780;44.998;9.926;2022-11-20T03:24:52;32.88;;;13.82;;
66870;SDS011;53780;44.998;9.926;2022-11-20T03:27:55;41.22;;;15.60;;
66870;SDS011;53780;44.998;9.926;2022-11-20T03:31:04;38.50;;;14.93;;
66870;SDS011;53780;44.998;9.926;2022-11-20T03:34:18;46.58;;;17.85;;
66870;SDS011;53780;44.998;9.926;2022-11-20T03:37:22;42.33;;;16.40;;
66870;SDS011;53780;44.998;9.926;2022-11-20T03:40:26;42.45;;;16.70;;
66870;SDS011;53780;44.998;9.926;2022-11-20T03:43:30;43.50;;;16.63;;
66870;SDS011;53780;44.998;9.926;2022-11-20T03:46:34;42.60;;;18.05;;
66870;SDS011;53780;44.998;9.926;2022-11-20T03:49:39;43.63;;;17.17;;
66870;SDS011;53780;44.998;9.926;2022-11-20T03:52:43;46.03;;;16.35;;
66870;SDS011;53780;44.998;9.926;2022-11-20T03:55:52;45.35;;;16.85;;
66870;SDS011;53780;44.998;9.926;2022-11-20T03:58:56;42.92;;;16.92;;
66870;SDS011;53780;44.998;9.926;2022-11-20T04:02:01;42.80;;;17.20;;
66870;SDS011;53780;44.998;9.926;2022-11-20T04:05:05;46.17;;;18.27;;
66870;SDS011;53780;44.998;9.926;2022-11-20T04:08:09;43.65;;;17.30;;
66870;SDS011;53780;44.998;9.926;2022-11-20T04:11:26;45.30;;;17.55;;
66870;SDS011;53780;44.998;9.926;2022-11-20T04:14:31;45.90;;;17.77;;
66870;SDS011;53780;44.998;9.926;2022-11-20T04:17:35;45.50;;;18.73;;
66870;SDS011;53780;44.998;9.926;2022-11-20T04:20:39;49.22;;;17.08;;
66870;SDS011;53780;44.998;9.926;2022-11-20T04:23:43;40.60;;;16.42;;
66870;SDS011;53780;44.998;9.926;2022-11-20T04:26:46;39.40;;;15.90;;
66870;SDS011;53780;44.998;9.926;2022-11-20T04:29:50;40.88;;;14.82;;
66870;SDS011;53780;44.998;9.926;2022-11-20T04:32:54;36.75;;;15.20;;
66870;SDS011;53780;44.998;9.926;2022-11-20T04:36:05;41.45;;;15.52;;
66870;SDS011;53780;44.998;9.926;2022-11-20T04:39:11;38.95;;;14.55;;
66870;SDS011;53780;44.998;9.926;2022-11-20T04:42:16;31.15;;;13.82;;
66870;SDS011;53780;44.998;9.926;2022-11-20T04:45:32;24.25;;;12.05;;
66870;SDS011;53780;44.998;9.926;2022-11-20T04:48:35;23.20;;;11.65;;
66870;SDS011;53780;44.998;9.926;2022-11-20T04:51:39;25.17;;;12.15;;
66870;SDS011;53780;44.998;9.926;2022-11-20T04:54:43;23.73;;;12.10;;
66870;SDS011;53780;44.998;9.926;2022-11-20T04:57:49;24.92;;;11.48;;
66870;SDS011;53780;44.998;9.926;2022-11-20T05:01:01;23.00;;;10.82;;
66870;SDS011;53780;44.998;9.926;2022-11-20T05:04:21;21.80;;;11.38;;
66870;SDS011;53780;44.998;9.926;2022-11-20T05:07:25;22.67;;;11.10;;
66870;SDS011;53780;44.998;9.926;2022-11-20T05:10:29;21.48;;;11.43;;
66870;SDS011;53780;44.998;9.926;2022-11-20T05:13:32;23.45;;;12.23;;
66870;SDS011;53780;44.998;9.926;2022-11-20T05:16:36;27.10;;;12.63;;
66870;SDS011;53780;44.998;9.926;2022-11-20T05:19:40;27.73;;;13.35;;
66870;SDS011;53780;44.998;9.926;2022-11-20T05:22:44;27.33;;;12.77;;
66870;SDS011;53780;44.998;9.926;2022-11-20T05:25:51;24.75;;;11.55;;
66870;SDS011;53780;44.998;9.926;2022-11-20T05:28:55;24.35;;;10.55;;
66870;SDS011;53780;44.998;9.926;2022-11-20T05:31:59;22.85;;;10.93;;
66870;SDS011;53780;44.998;9.926;2022-11-20T05:35:03;25.42;;;11.50;;
66870;SDS011;53780;44.998;9.926;2022-11-20T05:38:07;21.83;;;11.27;;
66870;SDS011;53780;44.998;9.926;2022-11-20T05:41:12;22.13;;;10.55;;
66870;SDS011;53780;44.998;9.926;2022-11-20T05:44:20;25.00;;;11.50;;
66870;SDS011;53780;44.998;9.926;2022-11-20T05:47:24;23.33;;;10.73;;
66870;SDS011;53780;44.998;9.926;2022-11-20T05:50:28;25.77;;;11.40;;
66870;SDS011;53780;44.998;9.926;2022-11-20T05:53:33;24.38;;;11.65;;
66870;SDS011;53780;44.998;9.926;2022-11-20T05:56:37;23.98;;;11.85;;
66870;SDS011;53780;44.998;9.926;2022-11-20T05:59:42;24.77;;;11.52;;
66870;SDS011;53780;44.998;9.926;2022-11-20T06:02:45;27.30;;;12.40;;
66870;SDS011;53780;44.998;9.926;2022-11-20T06:05:49;29.20;;;13.35;;
66870;SDS011;53780;44.998;9.926;2022-11-20T06:08:54;28.40;;;13.05;;
66870;SDS011;53780;44.998;9.926;2022-11-20T06:11:58;27.58;;;12.82;;
66870;SDS011;53780;44.998;9.926;2022-11-20T06:15:02;29.30;;;13.73;;
66870;SDS011;53780;44.998;9.926;2022-11-20T06:18:06;28.00;;;14.23;;
66870;SDS011;53780;44.998;9.926;2022-11-20T06:21:11;27.45;;;13.65;;
66870;SDS011;53780;44.998;9.926;2022-11-20T06:24:17;29.38;;;13.70;;
66870;SDS011;53780;44.998;9.926;2022-11-20T06:27:21;26.95;;;13.20;;
66870;SDS011;53780;44.998;9.926;2022-11-20T06:30:25;25.75;;;13.30;;
66870;SDS011;53780;44.998;9.926;2022-11-20T06:33:28;26.77;;;12.18;;
66870;SDS011;53780;44.998;9.926;2022-11-20T06:36:33;27.20;;;12.05;;
66870;SDS011;53780;44.998;9.926;2022-11-20T06:39:37;26.65;;;11.88;;
66870;SDS011;53780;44.998;9.926;2022-11-20T06:42:40;25.90;;;11.40;;
66870;SDS011;53780;44.998;9.926;2022-11-20T06:45:44;27.10;;;12.15;;
66870;SDS011;53780;44.998;9.926;2022-11-20T06:48:48;27.13;;;12.32;;
66870;SDS011;53780;44.998;9.926;2022-11-20T06:51:53;26.98;;;12.77;;
66870;SDS011;53780;44.998;9.926;2022-11-20T06:54:56;23.23;;;11.85;;
66870;SDS011;53780;44.998;9.926;2022-11-20T06:58:00;25.15;;;12.07;;
66870;SDS011;53780;44.998;9.926;2022-11-20T07:01:05;25.80;;;12.20;;
66870;SDS011;53780;44.998;9.926;2022-11-20T07:04:10;26.90;;;12.27;;
66870;SDS011;53780;44.998;9.926;2022-11-20T07:07:14;23.48;;;11.90;;
66870;SDS011;53780;44.998;9.926;2022-11-20T07:10:19;27.25;;;12.85;;
66870;SDS011;53780;44.998;9.926;2022-11-20T07:13:22;24.67;;;12.10;;
66870;SDS011;53780;44.998;9.926;2022-11-20T07:16:26;27.27;;;12.65;;
66870;SDS011;53780;44.998;9.926;2022-11-20T07:19:30;26.92;;;12.38;;
66870;SDS011;53780;44.998;9.926;2022-11-20T07:22:35;29.75;;;13.18;;
66870;SDS011;53780;44.998;9.926;2022-11-20T07:25:38;27.30;;;13.38;;
66870;SDS011;53780;44.998;9.926;2022-11-20T07:28:45;28.00;;;12.50;;
66870;SDS011;53780;44.998;9.926;2022-11-20T07:31:49;30.00;;;13.55;;
66870;SDS011;53780;44.998;9.926;2022-11-20T07:34:53;28.33;;;13.77;;
66870;SDS011;53780;44.998;9.926;2022-11-20T07:37:57;30.08;;;13.02;;
66870;SDS011;53780;44.998;9.926;2022-11-20T07:41:01;27.50;;;13.07;;
66870;SDS011;53780;44.998;9.926;2022-11-20T07:44:04;26.45;;;12.95;;
66870;SDS011;53780;44.998;9.926;2022-11-20T07:47:08;28.83;;;13.40;;
66870;SDS011;53780;44.998;9.926;2022-11-20T07:50:12;27.73;;;13.25;;
66870;SDS011;53780;44.998;9.926;2022-11-20T07:53:17;31.10;;;14.00;;
66870;SDS011;53780;44.998;9.926;2022-11-20T07:56:27;35.17;;;15.05;;
66870;SDS011;53780;44.998;9.926;2022-11-20T07:59:31;31.35;;;15.15;;
66870;SDS011;53780;44.998;9.926;2022-11-20T08:02:38;32.00;;;14.93;;
66870;SDS011;53780;44.998;9.926;2022-11-20T08:05:43;34.10;;;16.05;;
66870;SDS011;53780;44.998;9.926;2022-11-20T08:08:47;32.67;;;15.98;;
66870;SDS011;53780;44.998;9.926;2022-11-20T08:11:51;36.80;;;16.33;;
66870;SDS011;53780;44.998;9.926;2022-11-20T08:15:13;32.92;;;16.05;;
66870;SDS011;53780;44.998;9.926;2022-11-20T08:18:18;38.83;;;17.08;;
66870;SDS011;53780;44.998;9.926;2022-11-20T08:21:22;37.42;;;16.73;;
66870;SDS011;53780;44.998;9.926;2022-11-20T08:24:26;39.58;;;16.80;;
66870;SDS011;53780;44.998;9.926;2022-11-20T08:27:31;36.40;;;16.13;;
66870;SDS011;53780;44.998;9.926;2022-11-20T08:30:36;42.55;;;18.33;;
66870;SDS011;53780;44.998;9.926;2022-11-20T08:33:41;38.35;;;16.60;;
66870;SDS011;53780;44.998;9.926;2022-11-20T08:36:45;43.28;;;17.00;;
66870;SDS011;53780;44.998;9.926;2022-11-20T08:39:51;46.88;;;16.60;;
66870;SDS011;53780;44.998;9.926;2022-11-20T08:42:56;35.70;;;16.08;;
66870;SDS011;53780;44.998;9.926;2022-11-20T08:46:00;38.33;;;15.88;;
66870;SDS011;53780;44.998;9.926;2022-11-20T08:49:06;38.90;;;14.73;;
66870;SDS011;53780;44.998;9.926;2022-11-20T08:52:12;33.08;;;15.13;;
66870;SDS011;53780;44.998;9.926;2022-11-20T08:55:16;33.10;;;15.67;;
66870;SDS011;53780;44.998;9.926;2022-11-20T08:58:20;33.65;;;15.38;;
66870;SDS011;53780;44.998;9.926;2022-11-20T09:01:23;38.83;;;15.80;;
66870;SDS011;53780;44.998;9.926;2022-11-20T09:04:28;54.65;;;15.50;;
66870;SDS011;53780;44.998;9.926;2022-11-20T09:07:32;35.67;;;15.60;;
66870;SDS011;53780;44.998;9.926;2022-11-20T09:10:36;31.53;;;14.43;;
66870;SDS011;53780;44.998;9.926;2022-11-20T09:13:42;33.83;;;15.55;;
66870;SDS011;53780;44.998;9.926;2022-11-20T09:16:46;32.63;;;15.15;;
66870;SDS011;53780;44.998;9.926;2022-11-20T09:19:50;33.47;;;15.35;;
66870;SDS011;53780;44.998;9.926;2022-11-20T09:22:54;36.30;;;14.20;;
66870;SDS011;53780;44.998;9.926;2022-11-20T09:26:01;46.70;;;14.70;;
66870;SDS011;53780;44.998;9.926;2022-11-20T09:29:06;32.65;;;14.38;;
66870;SDS011;53780;44.998;9.926;2022-11-20T09:32:10;39.47;;;15.13;;
66870;SDS011;53780;44.998;9.926;2022-11-20T09:35:14;30.52;;;14.48;;
66870;SDS011;53780;44.998;9.926;2022-11-20T09:38:18;32.50;;;13.55;;
66870;SDS011;53780;44.998;9.926;2022-11-20T09:48:11;33.55;;;14.95;;
66870;SDS011;53780;44.998;9.926;2022-11-20T09:54:39;28.88;;;14.18;;
66870;SDS011;53780;44.998;9.926;2022-11-20T09:57:46;35.30;;;14.53;;
66870;SDS011;53780;44.998;9.926;2022-11-20T10:00:52;34.92;;;15.30;;
66870;SDS011;53780;44.998;9.926;2022-11-20T10:04:03;32.40;;;14.68;;
66870;SDS011;53780;44.998;9.926;2022-11-20T10:07:18;30.65;;;14.68;;
66870;SDS011;53780;44.998;9.926;2022-11-20T10:21:04;37.65;;;16.05;;
66870;SDS011;53780;44.998;9.926;2022-11-20T10:27:57;39.45;;;16.75;;
66870;SDS011;53780;44.998;9.926;2022-11-20T10:31:16;34.90;;;15.13;;
66870;SDS011;53780;44.998;9.926;2022-11-20T10:34:31;36.25;;;17.05;;
66870;SDS011;53780;44.998;9.926;2022-11-20T10:37:42;33.75;;;15.18;;
66870;SDS011;53780;44.998;9.926;2022-11-20T10:40:49;37.78;;;16.88;;
66870;SDS011;53780;44.998;9.926;2022-11-20T10:44:22;29.08;;;13.60;;
66870;SDS011;53780;44.998;9.926;2022-11-20T10:47:55;30.30;;;14.67;;
66870;SDS011;53780;44.998;9.926;2022-11-20T10:51:37;32.20;;;14.60;;
66870;SDS011;53780;44.998;9.926;2022-11-20T11:01:45;31.67;;;15.23;;
66870;SDS011;53780;44.998;9.926;2022-11-20T11:04:50;31.93;;;15.80;;
66870;SDS011;53780;44.998;9.926;2022-11-20T11:07:58;33.38;;;15.63;;
66870;SDS011;53780;44.998;9.926;2022-11-20T11:11:07;33.47;;;15.70;;
66870;SDS011;53780;44.998;9.926;2022-11-20T11:14:41;33.13;;;15.25;;
66870;SDS011;53780;44.998;9.926;2022-11-20T11:17:46;30.83;;;16.00;;
66870;SDS011;53780;44.998;9.926;2022-11-20T11:20:51;36.33;;;16.33;;
66870;SDS011;53780;44.998;9.926;2022-11-20T11:24:00;33.45;;;16.52;;
66870;SDS011;53780;44.998;9.926;2022-11-20T11:27:14;35.03;;;16.63;;
66870;SDS011;53780;44.998;9.926;2022-11-20T11:30:21;39.38;;;17.55;;
66870;SDS011;53780;44.998;9.926;2022-11-20T11:33:27;35.50;;;16.48;;
66870;SDS011;53780;44.998;9.926;2022-11-20T11:36:33;33.17;;;16.17;;
66870;SDS011;53780;44.998;9.926;2022-11-20T11:39:40;32.72;;;16.88;;
66870;SDS011;53780;44.998;9.926;2022-11-20T11:42:53;31.33;;;15.73;;
66870;SDS011;53780;44.998;9.926;2022-11-20T11:46:02;35.95;;;16.55;;
66870;SDS011;53780;44.998;9.926;2022-11-20T11:49:17;34.70;;;16.67;;
66870;SDS011;53780;44.998;9.926;2022-11-20T11:52:22;33.77;;;16.80;;
66870;SDS011;53780;44.998;9.926;2022-11-20T12:01:55;35.78;;;15.90;;
66870;SDS011;53780;44.998;9.926;2022-11-20T12:08:27;30.87;;;15.20;;
66870;SDS011;53780;44.998;9.926;2022-11-20T12:14:48;31.00;;;15.13;;
66870;SDS011;53780;44.998;9.926;2022-11-20T12:17:55;30.15;;;14.32;;
66870;SDS011;53780;44.998;9.926;2022-11-20T12:24:40;29.67;;;14.17;;
66870;SDS011;53780;44.998;9.926;2022-11-20T12:48:42;32.00;;;14.50;;
66870;SDS011;53780;44.998;9.926;2022-11-20T12:55:16;28.73;;;14.15;;
66870;SDS011;53780;44.998;9.926;2022-11-20T12:58:52;28.80;;;13.53;;
66870;SDS011;53780;44.998;9.926;2022-11-20T13:09:01;27.73;;;13.13;;
66870;SDS011;53780;44.998;9.926;2022-11-20T13:12:17;28.27;;;12.45;;
66870;SDS011;53780;44.998;9.926;2022-11-20T13:15:39;26.57;;;12.77;;
66870;SDS011;53780;44.998;9.926;2022-11-20T13:18:52;25.55;;;12.35;;
66870;SDS011;53780;44.998;9.926;2022-11-20T13:21:57;24.58;;;12.00;;
66870;SDS011;53780;44.998;9.926;2022-11-20T13:25:00;26.35;;;12.40;;
66870;SDS011;53780;44.998;9.926;2022-11-20T13:31:30;27.10;;;12.10;;
66870;SDS011;53780;44.998;9.926;2022-11-20T13:34:39;24.42;;;11.95;;
66870;SDS011;53780;44.998;9.926;2022-11-20T13:37:59;24.88;;;11.55;;
66870;SDS011;53780;44.998;9.926;2022-11-20T13:41:04;25.15;;;11.75;;
66870;SDS011;53780;44.998;9.926;2022-11-20T13:44:36;25.33;;;11.93;;
66870;SDS011;53780;44.998;9.926;2022-11-20T13:47:47;23.30;;;11.13;;
66870;SDS011;53780;44.998;9.926;2022-11-20T14:01:25;22.83;;;11.20;;
66870;SDS011;53780;44.998;9.926;2022-11-20T14:04:35;23.90;;;11.00;;
66870;SDS011;53780;44.998;9.926;2022-11-20T14:07:41;22.25;;;10.77;;
66870;SDS011;53780;44.998;9.926;2022-11-20T14:10:47;23.20;;;9.90;;
66870;SDS011;53780;44.998;9.926;2022-11-20T14:14:04;20.83;;;9.45;;
66870;SDS011;53780;44.998;9.926;2022-11-20T14:17:31;21.58;;;10.02;;
66870;SDS011;53780;44.998;9.926;2022-11-20T14:20:36;21.53;;;10.13;;
66870;SDS011;53780;44.998;9.926;2022-11-20T14:23:42;24.45;;;10.50;;
66870;SDS011;53780;44.998;9.926;2022-11-20T14:26:45;22.50;;;10.60;;
66870;SDS011;53780;44.998;9.926;2022-11-20T14:29:50;23.63;;;10.65;;
66870;SDS011;53780;44.998;9.926;2022-11-20T14:32:55;24.52;;;10.93;;
66870;SDS011;53780;44.998;9.926;2022-11-20T14:36:04;23.53;;;11.40;;
66870;SDS011;53780;44.998;9.926;2022-11-20T14:39:12;25.55;;;12.23;;
66870;SDS011;53780;44.998;9.926;2022-11-20T14:42:24;36.40;;;16.83;;
66870;SDS011;53780;44.998;9.926;2022-11-20T14:45:30;43.40;;;20.33;;
66870;SDS011;53780;44.998;9.926;2022-11-20T14:51:58;39.43;;;18.27;;
66870;SDS011;53780;44.998;9.926;2022-11-20T14:55:07;38.85;;;19.20;;
66870;SDS011;53780;44.998;9.926;2022-11-20T14:58:22;35.78;;;17.45;;
66870;SDS011;53780;44.998;9.926;2022-11-20T15:01:28;30.70;;;15.32;;
66870;SDS011;53780;44.998;9.926;2022-11-20T15:04:44;29.08;;;14.23;;
66870;SDS011;53780;44.998;9.926;2022-11-20T15:07:52;31.23;;;15.60;;
66870;SDS011;53780;44.998;9.926;2022-11-20T15:11:17;29.42;;;13.88;;
66870;SDS011;53780;44.998;9.926;2022-11-20T15:14:23;27.80;;;14.20;;
66870;SDS011;53780;44.998;9.926;2022-11-20T15:17:28;30.45;;;14.95;;
66870;SDS011;53780;44.998;9.926;2022-11-20T15:20:33;32.28;;;15.30;;
66870;SDS011;53780;44.998;9.926;2022-11-20T15:23:39;37.30;;;16.53;;
66870;SDS011;53780;44.998;9.926;2022-11-20T15:26:43;31.17;;;14.05;;
66870;SDS011;53780;44.998;9.926;2022-11-20T15:29:47;25.25;;;13.02;;
66870;SDS011;53780;44.998;9.926;2022-11-20T15:32:51;25.35;;;12.73;;
66870;SDS011;53780;44.998;9.926;2022-11-20T15:35:55;24.88;;;12.75;;
66870;SDS011;53780;44.998;9.926;2022-11-20T15:39:00;27.83;;;13.37;;
66870;SDS011;53780;44.998;9.926;2022-11-20T15:42:04;26.60;;;12.90;;
66870;SDS011;53780;44.998;9.926;2022-11-20T15:45:07;29.52;;;13.80;;
66870;SDS011;53780;44.998;9.926;2022-11-20T15:48:16;28.45;;;13.75;;
66870;SDS011;53780;44.998;9.926;2022-11-20T15:51:30;28.42;;;13.73;;
66870;SDS011;53780;44.998;9.926;2022-11-20T15:54:35;28.47;;;13.87;;
66870;SDS011;53780;44.998;9.926;2022-11-20T15:57:39;31.35;;;15.43;;
66870;SDS011;53780;44.998;9.926;2022-11-20T16:00:43;32.00;;;16.00;;
66870;SDS011;53780;44.998;9.926;2022-11-20T16:03:48;35.03;;;18.10;;
66870;SDS011;53780;44.998;9.926;2022-11-20T16:06:52;34.10;;;17.92;;
66870;SDS011;53780;44.998;9.926;2022-11-20T16:09:56;43.00;;;20.50;;
66870;SDS011;53780;44.998;9.926;2022-11-20T16:13:00;37.08;;;19.15;;
66870;SDS011;53780;44.998;9.926;2022-11-20T16:16:23;36.65;;;18.17;;
66870;SDS011;53780;44.998;9.926;2022-11-20T16:19:32;37.30;;;18.25;;
66870;SDS011;53780;44.998;9.926;2022-11-20T16:22:35;39.72;;;18.20;;
66870;SDS011;53780;44.998;9.926;2022-11-20T16:25:39;40.27;;;18.83;;
66870;SDS011;53780;44.998;9.926;2022-11-20T16:28:43;39.10;;;18.17;;
66870;SDS011;53780;44.998;9.926;2022-11-20T16:31:47;32.25;;;16.25;;
66870;SDS011;53780;44.998;9.926;2022-11-20T16:34:51;37.20;;;16.38;;
66870;SDS011;53780;44.998;9.926;2022-11-20T16:37:55;32.60;;;16.30;;
66870;SDS011;53780;44.998;9.926;2022-11-20T16:41:00;36.10;;;17.13;;
66870;SDS011;53780;44.998;9.926;2022-11-20T16:44:08;37.75;;;19.08;;
66870;SDS011;53780;44.998;9.926;2022-11-20T16:47:13;57.75;;;27.27;;
66870;SDS011;53780;44.998;9.926;2022-11-20T16:50:17;54.80;;;26.50;;
66870;SDS011;53780;44.998;9.926;2022-11-20T16:53:21;47.60;;;23.10;;
66870;SDS011;53780;44.998;9.926;2022-11-20T16:56:26;41.80;;;19.60;;
66870;SDS011;53780;44.998;9.926;2022-11-20T16:59:30;46.42;;;20.70;;
66870;SDS011;53780;44.998;9.926;2022-11-20T17:02:34;43.75;;;21.10;;
66870;SDS011;53780;44.998;9.926;2022-11-20T17:05:38;47.42;;;22.45;;
66870;SDS011;53780;44.998;9.926;2022-11-20T17:08:42;61.55;;;25.88;;
66870;SDS011;53780;44.998;9.926;2022-11-20T17:11:47;38.10;;;18.03;;
66870;SDS011;53780;44.998;9.926;2022-11-20T17:14:51;39.80;;;18.02;;
66870;SDS011;53780;44.998;9.926;2022-11-20T17:17:56;39.30;;;17.33;;
66870;SDS011;53780;44.998;9.926;2022-11-20T17:21:00;43.45;;;20.17;;
66870;SDS011;53780;44.998;9.926;2022-11-20T17:24:08;38.55;;;19.13;;
66870;SDS011;53780;44.998;9.926;2022-11-20T17:27:14;43.17;;;19.30;;
66870;SDS011;53780;44.998;9.926;2022-11-20T17:30:18;40.72;;;19.20;;
66870;SDS011;53780;44.998;9.926;2022-11-20T17:33:22;37.92;;;18.35;;
66870;SDS011;53780;44.998;9.926;2022-11-20T17:36:28;39.22;;;18.15;;
66870;SDS011;53780;44.998;9.926;2022-11-20T17:39:33;39.17;;;18.33;;
66870;SDS011;53780;44.998;9.926;2022-11-20T17:42:37;42.43;;;20.90;;
66870;SDS011;53780;44.998;9.926;2022-11-20T17:45:41;46.45;;;22.52;;
66870;SDS011;53780;44.998;9.926;2022-11-20T17:48:46;46.75;;;22.98;;
66870;SDS011;53780;44.998;9.926;2022-11-20T17:51:52;43.85;;;21.85;;
66870;SDS011;53780;44.998;9.926;2022-11-20T17:54:55;41.40;;;19.95;;
66870;SDS011;53780;44.998;9.926;2022-11-20T17:58:00;50.13;;;24.23;;
66870;SDS011;53780;44.998;9.926;2022-11-20T18:01:08;48.20;;;23.13;;
66870;SDS011;53780;44.998;9.926;2022-11-20T18:04:13;45.55;;;20.75;;
66870;SDS011;53780;44.998;9.926;2022-11-20T18:07:17;40.13;;;18.55;;
66870;SDS011;53780;44.998;9.926;2022-11-20T18:10:20;40.70;;;17.88;;
66870;SDS011;53780;44.998;9.926;2022-11-20T18:13:24;41.47;;;18.10;;
66870;SDS011;53780;44.998;9.926;2022-11-20T18:16:52;50.67;;;22.75;;
66870;SDS011;53780;44.998;9.926;2022-11-20T18:19:57;58.60;;;26.35;;
66870;SDS011;53780;44.998;9.926;2022-11-20T18:23:01;52.45;;;24.98;;
66870;SDS011;53780;44.998;9.926;2022-11-20T18:26:05;67.18;;;31.27;;
66870;SDS011;53780;44.998;9.926;2022-11-20T18:29:10;55.07;;;25.07;;
66870;SDS011;53780;44.998;9.926;2022-11-20T18:32:15;46.47;;;20.77;;
66870;SDS011;53780;44.998;9.926;2022-11-20T18:35:18;46.70;;;20.05;;
66870;SDS011;53780;44.998;9.926;2022-11-20T18:38:22;47.65;;;19.23;;
66870;SDS011;53780;44.998;9.926;2022-11-20T18:41:27;45.15;;;19.70;;
66870;SDS011;53780;44.998;9.926;2022-11-20T18:44:50;43.60;;;18.90;;
66870;SDS011;53780;44.998;9.926;2022-11-20T18:47:56;45.58;;;20.45;;
66870;SDS011;53780;44.998;9.926;2022-11-20T18:51:04;53.47;;;22.80;;
66870;SDS011;53780;44.998;9.926;2022-11-20T18:54:10;48.53;;;20.45;;
66870;SDS011;53780;44.998;9.926;2022-11-20T18:57:17;45.53;;;19.73;;
66870;SDS011;53780;44.998;9.926;2022-11-20T19:00:23;47.28;;;20.25;;
66870;SDS011;53780;44.998;9.926;2022-11-20T19:03:26;49.60;;;21.83;;
66870;SDS011;53780;44.998;9.926;2022-11-20T19:06:30;55.70;;;23.52;;
66870;SDS011;53780;44.998;9.926;2022-11-20T19:09:35;55.15;;;23.10;;
66870;SDS011;53780;44.998;9.926;2022-11-20T19:12:39;53.80;;;23.65;;
66870;SDS011;53780;44.998;9.926;2022-11-20T19:15:42;51.80;;;22.37;;
66870;SDS011;53780;44.998;9.926;2022-11-20T19:18:46;103.70;;;36.13;;
66870;SDS011;53780;44.998;9.926;2022-11-20T19:21:51;91.90;;;34.03;;
66870;SDS011;53780;44.998;9.926;2022-11-20T19:24:55;61.92;;;24.10;;
66870;SDS011;53780;44.998;9.926;2022-11-20T19:27:59;45.08;;;19.70;;
66870;SDS011;53780;44.998;9.926;2022-11-20T19:34:08;40.85;;;16.90;;
66870;SDS011;53780;44.998;9.926;2022-11-20T19:37:12;42.78;;;17.58;;
66870;SDS011;53780;44.998;9.926;2022-11-20T19:40:16;37.28;;;16.73;;
66870;SDS011;53780;44.998;9.926;2022-11-20T19:43:19;37.75;;;17.08;;
66870;SDS011;53780;44.998;9.926;2022-11-20T19:46:23;40.88;;;17.38;;
66870;SDS011;53780;44.998;9.926;2022-11-20T19:49:28;38.30;;;16.38;;
66870;SDS011;53780;44.998;9.926;2022-11-20T19:52:32;40.28;;;16.75;;
66870;SDS011;53780;44.998;9.926;2022-11-20T19:55:36;41.15;;;17.48;;